createdAt,value
2023-02-11T00:00:43.462Z,65.38
2023-02-11T00:03:46.164Z,65.12
2023-02-11T00:06:47.539Z,64.99
2023-02-11T00:09:50.771Z,65.39
2023-02-11T00:12:52.075Z,65.08
2023-02-11T00:15:55.870Z,65.44
2023-02-11T00:18:59.130Z,64.48
2023-02-11T00:22:01.685Z,65.04
2023-02-11T00:25:05.442Z,65.32
2023-02-11T00:28:06.890Z,65.28
2023-02-11T00:31:09.740Z,64.94
2023-02-11T00:34:11.108Z,64.98
2023-02-11T00:37:12.901Z,64.87
2023-02-11T00:40:16.562Z,65.02
2023-02-11T00:43:17.899Z,65.25
2023-02-11T00:46:21.002Z,65.19
2023-02-11T00:52:44.290Z,65.17
2023-02-11T00:55:47.670Z,65.43
2023-02-11T00:58:49.303Z,65.48
2023-02-11T01:01:51.844Z,65.30
2023-02-11T01:04:54.555Z,64.72
2023-02-11T01:07:55.943Z,65.27
2023-02-11T01:11:00.226Z,65.67
2023-02-11T01:14:02.019Z,65.50
2023-02-11T01:17:06.243Z,65.86
2023-02-11T01:20:14.605Z,64.87
2023-02-11T01:23:17.163Z,64.58
2023-02-11T01:26:20.604Z,65.54
2023-02-11T01:29:21.878Z,65.37
2023-02-11T01:32:24.478Z,65.12
2023-02-11T01:35:25.739Z,65.32
2023-02-11T01:38:28.255Z,64.33
2023-02-11T01:41:31.630Z,64.72
2023-02-11T01:44:35.618Z,64.64
2023-02-11T01:47:38.181Z,65.26
2023-02-11T01:50:42.596Z,65.07
2023-02-11T01:54:05.710Z,64.87
2023-02-11T01:57:25.393Z,64.89
2023-02-11T02:00:31.792Z,65.56
2023-02-11T02:03:37.389Z,65.32
2023-02-11T02:06:48.725Z,65.08
2023-02-11T02:09:59.661Z,64.91
2023-02-11T02:13:01.606Z,65.39
2023-02-11T02:16:09.483Z,65.14
2023-02-11T02:19:57.048Z,65.85
2023-02-11T02:23:31.552Z,65.49
2023-02-11T02:26:53.738Z,65.49
2023-02-11T02:30:13.090Z,65.32
2023-02-11T02:33:37.365Z,65.62
2023-02-11T02:36:46.361Z,66.05
2023-02-11T02:39:50.018Z,66.21
2023-02-11T02:42:54.654Z,65.86
2023-02-11T02:46:08.633Z,65.90
2023-02-11T02:49:14.619Z,66.24
2023-02-11T02:52:29.273Z,66.77
2023-02-11T02:55:41.185Z,67.04
2023-02-11T02:58:55.993Z,66.86
2023-02-11T03:02:08.387Z,66.71
2023-02-11T03:05:19.439Z,67.19
2023-02-11T03:08:27.838Z,67.05
2023-02-11T03:11:30.493Z,66.52
2023-02-11T03:14:34.614Z,67.09
2023-02-11T03:17:39.104Z,67.24
2023-02-11T03:20:45.434Z,66.82
2023-02-11T03:23:51.152Z,67.50
2023-02-11T03:26:55.653Z,67.08
2023-02-11T03:33:33.317Z,67.29
2023-02-11T03:40:11.025Z,67.56
2023-02-11T03:43:17.280Z,67.80
2023-02-11T03:46:24.619Z,68.25
2023-02-11T03:49:27.200Z,68.33
2023-02-11T03:52:31.509Z,68.39
2023-02-11T03:55:37.743Z,68.29
2023-02-11T03:58:39.026Z,67.96
2023-02-11T04:01:41.886Z,68.20
2023-02-11T04:04:43.668Z,69.00
2023-02-11T04:07:46.855Z,68.61
2023-02-11T04:10:48.143Z,69.50
2023-02-11T04:13:50.733Z,69.14
2023-02-11T04:16:53.251Z,68.77
2023-02-11T04:19:54.610Z,69.05
2023-02-11T04:22:57.807Z,68.79
2023-02-11T04:25:59.197Z,69.36
2023-02-11T04:29:01.740Z,69.40
2023-02-11T04:32:04.466Z,69.56
2023-02-11T04:35:06.496Z,70.20
2023-02-11T04:38:09.707Z,70.58
2023-02-11T04:41:11.034Z,71.93
2023-02-11T04:44:13.692Z,70.96
2023-02-11T04:47:16.350Z,72.10
2023-02-11T04:50:17.916Z,72.54
2023-02-11T04:53:21.229Z,72.66
2023-02-11T04:56:22.613Z,72.97
2023-02-11T04:59:25.500Z,73.03
2023-02-11T05:02:28.225Z,73.83
2023-02-11T05:05:29.512Z,74.28
2023-02-11T05:08:33.335Z,74.35
2023-02-11T05:11:35.914Z,74.57
2023-02-11T05:14:38.424Z,74.47
2023-02-11T05:17:40.960Z,74.01
2023-02-11T05:20:43.225Z,73.99
2023-02-11T05:23:47.106Z,75.39
2023-02-11T05:26:48.402Z,74.13
2023-02-11T05:29:50.994Z,74.47
2023-02-11T05:32:52.308Z,74.56
2023-02-11T05:35:58.257Z,75.10
2023-02-11T05:39:00.213Z,75.88
2023-02-11T05:42:02.786Z,75.48
2023-02-11T05:45:05.878Z,74.76
2023-02-11T05:51:29.348Z,76.07
2023-02-11T05:54:33.660Z,76.24
2023-02-11T05:57:36.373Z,76.74
2023-02-11T06:00:39.111Z,76.06
2023-02-11T06:03:40.466Z,76.04
2023-02-11T06:06:43.009Z,77.32
2023-02-11T06:09:45.060Z,76.66
2023-02-11T06:12:47.628Z,76.70
2023-02-11T06:15:57.134Z,76.88
2023-02-11T06:18:58.439Z,77.27
2023-02-11T06:22:01.018Z,76.33
2023-02-11T06:25:04.617Z,76.94
2023-02-11T06:28:06.024Z,76.67
2023-02-11T06:31:10.195Z,77.15
2023-02-11T06:34:12.859Z,77.90
2023-02-11T06:37:14.188Z,79.02
2023-02-11T06:40:17.588Z,77.94
2023-02-11T06:43:18.920Z,77.93
2023-02-11T06:46:21.556Z,78.38
2023-02-11T06:49:24.101Z,78.50
2023-02-11T06:52:25.488Z,80.10
2023-02-11T06:55:28.988Z,79.16
2023-02-11T06:58:30.282Z,79.19
2023-02-11T07:01:33.084Z,78.86
2023-02-11T07:04:34.393Z,78.94
2023-02-11T07:07:37.196Z,78.87
2023-02-11T07:10:40.635Z,78.38
2023-02-11T07:13:42.605Z,78.58
2023-02-11T07:16:45.243Z,79.26
2023-02-11T07:19:46.538Z,78.49
2023-02-11T07:22:49.102Z,79.51
2023-02-11T07:25:51.245Z,78.91
2023-02-11T07:28:54.316Z,78.96
2023-02-11T07:31:56.837Z,79.32
2023-02-11T07:34:58.402Z,78.83
2023-02-11T07:38:00.909Z,78.37
2023-02-11T07:41:04.373Z,78.21
2023-02-11T07:44:07.526Z,77.80
2023-02-11T07:47:10.038Z,78.19
2023-02-11T07:50:11.330Z,78.45
2023-02-11T07:53:15.767Z,77.47
2023-02-11T07:56:20.978Z,77.54
2023-02-11T07:59:24.092Z,76.91
2023-02-11T08:02:26.779Z,77.88
2023-02-11T08:05:28.067Z,78.96
2023-02-11T08:08:30.609Z,78.14
2023-02-11T08:11:33.958Z,78.13
2023-02-11T08:14:35.475Z,77.52
2023-02-11T08:17:38.054Z,77.35
2023-02-11T08:20:39.372Z,78.59
2023-02-11T08:23:43.774Z,78.20
2023-02-11T08:26:45.728Z,78.65
2023-02-11T08:29:48.312Z,78.03
2023-02-11T08:32:50.861Z,78.41
2023-02-11T08:35:52.249Z,77.26
2023-02-11T08:39:05.671Z,79.05
2023-02-11T08:42:16.242Z,78.43
2023-02-11T08:45:17.660Z,79.52
2023-02-11T08:48:20.208Z,78.68
2023-02-11T08:51:23.512Z,78.93
2023-02-11T08:54:26.150Z,78.25
2023-02-11T08:57:29.412Z,79.37
2023-02-11T09:00:31.230Z,78.77
2023-02-11T09:03:33.878Z,78.60
2023-02-11T09:06:35.184Z,78.37
2023-02-11T09:09:37.842Z,78.63
2023-02-11T09:12:39.931Z,79.12
2023-02-11T09:15:46.039Z,79.47
2023-02-11T09:18:49.526Z,79.02
2023-02-11T09:21:50.874Z,78.68
2023-02-11T09:24:53.506Z,79.20
2023-02-11T09:27:56.789Z,79.12
2023-02-11T09:30:58.180Z,79.10
2023-02-11T09:34:03.148Z,79.00
2023-02-11T09:37:04.420Z,78.86
2023-02-11T09:40:07.787Z,78.21
2023-02-11T09:43:16.185Z,78.47
2023-02-11T09:46:19.377Z,79.06
2023-02-11T09:49:26.847Z,78.41
2023-02-11T09:52:37.016Z,79.25
2023-02-11T09:55:43.588Z,80.27
2023-02-11T09:58:46.435Z,79.41
2023-02-11T10:01:54.295Z,79.38
2023-02-11T10:05:26.960Z,79.97
2023-02-11T10:08:34.590Z,80.40
2023-02-11T10:11:47.045Z,80.31
2023-02-11T10:15:04.488Z,81.22
2023-02-11T10:18:34.205Z,81.70
2023-02-11T10:21:47.145Z,80.56
2023-02-11T10:24:52.300Z,80.97
2023-02-11T10:27:59.905Z,81.87
2023-02-11T10:31:07.815Z,82.27
2023-02-11T10:34:10.711Z,81.83
2023-02-11T10:37:14.775Z,81.87
2023-02-11T10:40:18.243Z,82.47
2023-02-11T10:43:25.099Z,81.91
2023-02-11T10:46:32.133Z,81.79
2023-02-11T10:53:20.951Z,82.39
2023-02-11T10:56:26.823Z,82.82
2023-02-11T10:59:32.215Z,81.81
2023-02-11T11:02:38.036Z,83.40
2023-02-11T11:05:49.440Z,83.72
2023-02-11T11:08:52.767Z,83.51
2023-02-11T11:11:55.274Z,83.50
2023-02-11T11:14:58.965Z,84.54
2023-02-11T11:18:21.934Z,83.11
2023-02-11T11:21:25.696Z,84.41
2023-02-11T11:24:30.887Z,84.10
2023-02-11T11:27:32.539Z,85.59
2023-02-11T11:30:42.421Z,85.49
2023-02-11T11:33:46.475Z,84.00
2023-02-11T11:36:50.795Z,83.51
2023-02-11T11:39:56.844Z,83.84
2023-02-11T11:43:15.905Z,83.08
2023-02-11T11:46:23.596Z,82.73
2023-02-11T11:49:33.764Z,83.49
2023-02-11T11:52:45.921Z,83.04
2023-02-11T11:55:59.669Z,84.13
2023-02-11T11:59:10.039Z,83.82
2023-02-11T12:02:46.406Z,82.27
2023-02-11T12:05:59.836Z,82.23
2023-02-11T12:09:10.733Z,81.65
2023-02-11T12:12:27.158Z,83.26
2023-02-11T12:15:36.944Z,80.85
2023-02-11T12:19:04.742Z,81.66
2023-02-11T12:22:12.084Z,81.40
2023-02-11T12:25:25.438Z,80.95
2023-02-11T12:28:41.656Z,82.06
2023-02-11T12:31:56.040Z,82.03
2023-02-11T12:39:02.972Z,81.41
2023-02-11T12:42:46.152Z,81.81
2023-02-11T12:46:12.766Z,81.57
2023-02-11T12:49:40.926Z,80.44
2023-02-11T12:53:00.786Z,80.73
2023-02-11T12:56:07.854Z,81.22
2023-02-11T13:02:46.853Z,81.20
2023-02-11T13:05:52.285Z,83.03
2023-02-11T13:09:00.783Z,81.17
2023-02-11T13:12:27.950Z,82.27
2023-02-11T13:15:31.703Z,82.08
2023-02-11T13:18:44.757Z,81.33
2023-02-11T13:22:09.937Z,81.74
2023-02-11T13:25:21.334Z,82.35
2023-02-11T13:28:36.982Z,80.71
2023-02-11T13:31:38.511Z,82.26
2023-02-11T13:35:00.251Z,81.34
2023-02-11T13:38:03.272Z,80.79
2023-02-11T13:41:21.293Z,81.41
2023-02-11T13:44:27.549Z,82.36
2023-02-11T13:47:31.207Z,82.27
2023-02-11T13:50:38.993Z,81.24
2023-02-11T13:53:48.813Z,82.77
2023-02-11T13:57:24.563Z,83.14
2023-02-11T14:00:47.861Z,82.47
2023-02-11T14:04:48.801Z,82.13
2023-02-11T14:08:38.788Z,82.71
2023-02-11T14:11:49.546Z,84.09
2023-02-11T14:15:20.578Z,82.26
2023-02-11T14:18:38.577Z,83.39
2023-02-11T14:21:44.188Z,83.39
2023-02-11T14:24:50.241Z,83.96
2023-02-11T14:27:57.559Z,83.64
2023-02-11T14:31:07.159Z,84.61
2023-02-11T14:34:31.415Z,84.30
2023-02-11T14:37:50.444Z,83.95
2023-02-11T14:41:00.957Z,85.45
2023-02-11T14:44:07.195Z,85.71
2023-02-11T14:47:18.233Z,84.66
2023-02-11T14:50:24.715Z,85.28
2023-02-11T14:53:31.371Z,85.12
2023-02-11T14:56:33.699Z,85.42
2023-02-11T14:59:36.757Z,85.52
2023-02-11T15:02:38.817Z,86.54
2023-02-11T15:05:42.069Z,87.71
2023-02-11T15:08:46.762Z,85.77
2023-02-11T15:11:51.491Z,85.36
2023-02-11T15:14:55.034Z,85.96
2023-02-11T15:18:00.549Z,85.24
2023-02-11T15:21:02.929Z,86.41
2023-02-11T15:24:07.655Z,85.86
2023-02-11T15:27:14.055Z,85.44
2023-02-11T15:30:29.062Z,86.03
2023-02-11T15:33:31.896Z,86.49
2023-02-11T15:36:35.493Z,87.05
2023-02-11T15:39:40.263Z,86.56
2023-02-11T15:42:57.390Z,86.09
2023-02-11T15:46:03.005Z,86.03
2023-02-11T15:49:04.753Z,85.44
2023-02-11T15:52:09.074Z,85.85
2023-02-11T15:55:14.710Z,85.67
2023-02-11T15:58:17.388Z,86.69
2023-02-11T16:01:20.139Z,86.48
2023-02-11T16:04:24.014Z,87.05
2023-02-11T16:07:42.052Z,85.85
2023-02-11T16:10:57.476Z,87.00
2023-02-11T16:14:01.557Z,87.02
2023-02-11T16:17:07.875Z,86.75
2023-02-11T16:20:18.091Z,86.59
2023-02-11T16:23:25.042Z,86.49
2023-02-11T16:26:30.858Z,86.08
2023-02-11T16:29:36.680Z,86.87
2023-02-11T16:32:38.204Z,86.60
2023-02-11T16:35:40.947Z,87.32
2023-02-11T16:38:42.901Z,87.04
2023-02-11T16:41:45.624Z,86.47
2023-02-11T16:44:46.906Z,87.60
2023-02-11T16:47:49.546Z,86.39
2023-02-11T16:50:53.452Z,86.98
2023-02-11T16:53:55.619Z,86.97
2023-02-11T16:56:58.400Z,86.01
2023-02-11T16:59:59.648Z,87.17
2023-02-11T17:03:02.201Z,87.72
2023-02-11T17:06:06.303Z,87.87
2023-02-11T17:09:15.102Z,87.39
2023-02-11T17:12:17.621Z,86.96
2023-02-11T17:15:18.919Z,87.60
2023-02-11T17:18:21.507Z,87.19
2023-02-11T17:21:28.755Z,87.61
2023-02-11T17:24:32.052Z,86.94
2023-02-11T17:27:34.936Z,87.60
2023-02-11T17:30:38.406Z,87.51
2023-02-11T17:33:41.062Z,87.23
2023-02-11T17:40:04.679Z,87.59
2023-02-11T17:43:07.280Z,87.44
2023-02-11T17:46:09.266Z,86.61
2023-02-11T17:49:12.212Z,86.50
2023-02-11T17:52:13.476Z,87.94
2023-02-11T17:55:15.519Z,87.44
2023-02-11T17:58:18.083Z,87.45
2023-02-11T18:01:19.607Z,87.38
2023-02-11T18:04:22.443Z,87.76
2023-02-11T18:07:25.824Z,88.33
2023-02-11T18:10:27.998Z,86.62
2023-02-11T18:13:30.930Z,87.66
2023-02-11T18:16:34.177Z,87.78
2023-02-11T18:19:38.042Z,86.80
2023-02-11T18:22:40.228Z,87.15
2023-02-11T18:25:43.437Z,87.79
2023-02-11T18:28:46.521Z,87.01
2023-02-11T18:31:49.108Z,87.76
2023-02-11T18:34:51.658Z,86.88
2023-02-11T18:37:54.246Z,87.14
2023-02-11T18:40:57.936Z,87.79
2023-02-11T18:44:03.470Z,87.36
2023-02-11T18:47:04.830Z,86.40
2023-02-11T18:50:09.829Z,87.22
2023-02-11T18:53:14.181Z,87.46
2023-02-11T18:56:18.540Z,86.85
2023-02-11T18:59:21.094Z,86.40
2023-02-11T19:02:24.077Z,87.41
2023-02-11T19:08:50.198Z,86.52
2023-02-11T19:11:53.345Z,87.61
2023-02-11T19:14:55.854Z,87.05
2023-02-11T19:17:57.109Z,86.23
2023-02-11T19:20:59.678Z,87.20
2023-02-11T19:24:07.538Z,87.03
2023-02-11T19:27:10.043Z,87.43
2023-02-11T19:30:13.339Z,88.17
2023-02-11T19:33:14.628Z,87.82
2023-02-11T19:36:17.765Z,88.14
2023-02-11T19:39:20.281Z,86.69
2023-02-11T19:42:22.237Z,87.25
2023-02-11T19:45:24.833Z,87.51
2023-02-11T19:48:26.087Z,86.82
2023-02-11T19:51:28.879Z,87.40
2023-02-11T19:54:31.390Z,87.82
2023-02-11T19:57:33.357Z,88.07
2023-02-11T20:00:35.874Z,87.61
2023-02-11T20:03:40.789Z,87.66
2023-02-11T20:06:45.470Z,86.91
2023-02-11T20:09:46.795Z,87.00
2023-02-11T20:12:50.171Z,87.28
2023-02-11T20:19:16.822Z,87.80
2023-02-11T20:22:19.416Z,87.70
2023-02-11T20:25:21.979Z,88.00
2023-02-11T20:28:23.962Z,87.57
2023-02-11T20:31:26.633Z,87.42
2023-02-11T20:34:28.640Z,86.42
2023-02-11T20:37:33.510Z,85.98
2023-02-11T20:40:34.806Z,86.26
2023-02-11T20:43:38.356Z,85.92
2023-02-11T20:46:43.584Z,86.54
2023-02-11T20:49:44.946Z,87.49
2023-02-11T20:52:48.893Z,86.88
2023-02-11T20:55:50.445Z,86.55
2023-02-11T20:58:57.427Z,85.78
2023-02-11T21:05:21.298Z,86.14
2023-02-11T21:08:23.917Z,86.02
2023-02-11T21:11:25.186Z,86.70
2023-02-11T21:14:28.675Z,86.91
2023-02-11T21:17:31.189Z,87.04
2023-02-11T21:20:32.502Z,85.63
2023-02-11T21:23:36.210Z,86.43
2023-02-11T21:26:38.233Z,85.40
2023-02-11T21:29:53.446Z,86.18
2023-02-11T21:32:58.546Z,86.10
2023-02-11T21:36:01.742Z,87.22
2023-02-11T21:39:04.676Z,86.80
2023-02-11T21:42:06.001Z,87.04
2023-02-11T21:45:10.567Z,86.90
2023-02-11T21:48:12.633Z,86.10
2023-02-11T21:51:17.616Z,86.59
2023-02-11T21:54:20.596Z,85.56
2023-02-11T21:57:21.898Z,85.66
2023-02-11T22:00:25.467Z,85.50
2023-02-11T22:03:28.611Z,85.97
2023-02-11T22:06:34.134Z,86.28
2023-02-11T22:09:38.988Z,87.16
2023-02-11T22:12:40.324Z,87.46
2023-02-11T22:15:43.514Z,87.26
2023-02-11T22:18:45.544Z,86.13
2023-02-11T22:21:48.069Z,86.60
2023-02-11T22:24:50.829Z,87.39
2023-02-11T22:27:52.154Z,86.86
2023-02-11T22:30:56.348Z,86.62
2023-02-11T22:33:59.828Z,87.09
2023-02-11T22:37:01.899Z,86.73
2023-02-11T22:40:04.849Z,87.07
2023-02-11T22:43:06.184Z,86.48
2023-02-11T22:46:09.715Z,86.76
2023-02-11T22:49:15.091Z,86.55
2023-02-11T22:52:16.539Z,86.71
2023-02-11T22:55:19.102Z,86.13
2023-02-11T22:58:20.398Z,85.94
2023-02-11T23:01:23.598Z,86.03
2023-02-11T23:04:24.860Z,86.40
2023-02-11T23:07:27.378Z,86.40
2023-02-11T23:10:30.251Z,86.78
2023-02-11T23:13:34.535Z,86.80
2023-02-11T23:16:37.793Z,86.91
2023-02-11T23:19:39.241Z,86.63
2023-02-11T23:22:41.780Z,86.54
2023-02-11T23:25:43.728Z,85.63
2023-02-11T23:28:46.936Z,86.42
2023-02-11T23:31:50.617Z,84.82
2023-02-11T23:34:52.251Z,85.78
2023-02-11T23:37:54.922Z,86.64
2023-02-11T23:44:17.122Z,86.03
2023-02-11T23:47:19.116Z,86.06
2023-02-11T23:50:21.810Z,85.43
2023-02-11T23:53:24.330Z,84.50
2023-02-11T23:56:27.119Z,84.83
2023-02-11T23:59:29.662Z,86.18
